createdAt,value
2018-03-26T00:00:06.718Z,52.50
2018-03-26T00:02:34.410Z,48.97
2018-03-26T00:05:02.872Z,50.73
2018-03-26T00:07:30.534Z,52.60
2018-03-26T00:09:58.179Z,51.93
2018-03-26T00:12:25.833Z,50.53
2018-03-26T00:14:53.496Z,50.93
2018-03-26T00:17:21.167Z,50.10
2018-03-26T00:19:48.851Z,47.97
2018-03-26T00:22:16.508Z,46.03
2018-03-26T00:24:44.194Z,50.03
2018-03-26T00:27:12.714Z,50.70
2018-03-26T00:29:40.371Z,51.43
2018-03-26T00:32:08.034Z,50.73
2018-03-26T00:34:35.703Z,50.07
2018-03-26T00:37:04.319Z,52.57
2018-03-26T00:39:32.003Z,55.93
2018-03-26T00:41:59.682Z,55.87
2018-03-26T00:44:27.367Z,53.97
2018-03-26T00:46:55.722Z,55.63
2018-03-26T00:49:24.171Z,57.37
2018-03-26T00:51:51.839Z,58.70
2018-03-26T00:54:19.479Z,57.07
2018-03-26T00:56:47.145Z,56.80
2018-03-26T00:59:14.791Z,58.60
2018-03-26T01:01:42.442Z,60.63
2018-03-26T01:04:10.129Z,61.50
2018-03-26T01:06:38.727Z,59.47
2018-03-26T01:09:06.441Z,56.67
2018-03-26T01:11:34.144Z,61.83
2018-03-26T01:14:01.789Z,63.90
2018-03-26T01:16:29.467Z,61.13
2018-03-26T01:18:57.835Z,63.40
2018-03-26T01:21:25.505Z,62.20
2018-03-26T01:23:53.145Z,59.43
2018-03-26T01:26:20.801Z,63.90
2018-03-26T01:28:48.467Z,63.00
2018-03-26T01:31:16.118Z,66.50
2018-03-26T01:33:44.548Z,64.63
2018-03-26T01:36:15.241Z,61.77
2018-03-26T01:38:42.916Z,64.00
2018-03-26T01:41:10.586Z,61.13
2018-03-26T01:43:38.285Z,63.23
2018-03-26T01:46:05.956Z,65.50
2018-03-26T01:48:33.620Z,72.43
2018-03-26T01:51:01.256Z,70.83
2018-03-26T01:53:28.968Z,68.87
2018-03-26T01:55:56.656Z,65.93
2018-03-26T01:58:24.343Z,68.90
2018-03-26T02:00:52.022Z,66.00
2018-03-26T02:03:19.690Z,65.00
2018-03-26T02:05:50.391Z,64.30
2018-03-26T02:08:18.062Z,69.20
2018-03-26T02:10:45.760Z,66.20
2018-03-26T02:13:13.401Z,58.87
2018-03-26T02:15:41.267Z,62.30
2018-03-26T02:18:08.954Z,62.97
2018-03-26T02:20:36.639Z,63.10
2018-03-26T02:23:05.079Z,63.37
2018-03-26T02:25:32.743Z,62.73
2018-03-26T02:28:00.440Z,63.50
2018-03-26T02:30:28.127Z,63.03
2018-03-26T02:32:55.780Z,63.43
2018-03-26T02:35:25.437Z,62.70
2018-03-26T02:37:53.100Z,61.83
2018-03-26T02:40:21.531Z,63.97
2018-03-26T02:42:49.942Z,68.93
2018-03-26T02:45:17.630Z,64.03
2018-03-26T02:47:45.360Z,71.07
2018-03-26T02:50:13.017Z,76.73
2018-03-26T02:52:40.657Z,67.00
2018-03-26T02:55:08.330Z,64.43
2018-03-26T02:57:35.984Z,72.57
2018-03-26T03:00:03.634Z,75.87
2018-03-26T03:02:31.245Z,73.27
2018-03-26T03:04:58.827Z,71.00
2018-03-26T03:07:26.468Z,73.90
2018-03-26T03:09:54.110Z,67.10
2018-03-26T03:12:22.541Z,70.23
2018-03-26T03:14:50.241Z,71.67
2018-03-26T03:17:18.644Z,71.60
2018-03-26T03:19:46.320Z,69.23
2018-03-26T03:22:13.958Z,62.93
2018-03-26T03:24:41.595Z,70.63
2018-03-26T03:27:11.188Z,68.00
2018-03-26T03:29:38.861Z,67.40
2018-03-26T03:32:06.567Z,69.60
2018-03-26T03:34:34.209Z,71.13
2018-03-26T03:37:02.634Z,63.97
2018-03-26T03:39:30.301Z,66.93
2018-03-26T03:41:58.026Z,63.03
2018-03-26T03:44:25.684Z,70.20
2018-03-26T03:46:54.107Z,64.63
2018-03-26T03:49:21.794Z,67.07
2018-03-26T03:51:49.481Z,64.37
2018-03-26T03:54:17.176Z,62.37
2018-03-26T03:56:46.013Z,65.10
2018-03-26T03:59:13.712Z,68.17
2018-03-26T04:01:42.144Z,63.57
2018-03-26T04:04:09.959Z,66.20
2018-03-26T04:06:38.440Z,72.93
2018-03-26T04:09:06.906Z,69.60
2018-03-26T04:11:34.611Z,72.80
2018-03-26T04:14:02.317Z,71.37
2018-03-26T04:16:29.981Z,75.07
2018-03-26T04:18:57.659Z,77.27
2018-03-26T04:21:25.370Z,63.83
2018-03-26T04:23:52.981Z,75.27
2018-03-26T04:26:23.861Z,68.93
2018-03-26T04:28:51.527Z,57.07
2018-03-26T04:31:19.208Z,66.40
2018-03-26T04:33:46.859Z,62.20
2018-03-26T04:36:14.524Z,65.45
2018-03-26T04:38:42.241Z,51.83
2018-03-26T04:41:09.907Z,45.87
2018-03-26T04:43:37.540Z,46.43
2018-03-26T04:46:08.926Z,55.23
2018-03-26T04:48:38.252Z,60.63
2018-03-26T04:51:05.918Z,57.77
2018-03-26T04:53:33.567Z,55.63
2018-03-26T04:56:01.253Z,54.53
2018-03-26T04:58:29.138Z,46.90
2018-03-26T05:00:56.937Z,46.13
2018-03-26T05:03:24.661Z,35.40
2018-03-26T05:05:52.440Z,35.60
2018-03-26T05:08:20.134Z,36.20
2018-03-26T05:10:47.830Z,39.53
2018-03-26T05:13:15.845Z,39.87
2018-03-26T05:15:47.361Z,38.87
2018-03-26T05:18:15.023Z,41.20
2018-03-26T05:20:42.725Z,47.27
2018-03-26T05:23:10.319Z,42.03
2018-03-26T05:25:37.996Z,45.87
2018-03-26T05:28:05.833Z,48.10
2018-03-26T05:30:33.967Z,49.03
2018-03-26T05:33:01.690Z,51.23
2018-03-26T05:35:29.372Z,55.00
2018-03-26T05:37:57.131Z,50.73
2018-03-26T05:40:25.343Z,46.03
2018-03-26T05:42:53.178Z,48.23
2018-03-26T05:45:24.558Z,43.97
2018-03-26T05:47:52.238Z,47.20
2018-03-26T05:50:20.155Z,45.50
2018-03-26T05:52:47.821Z,42.67
2018-03-26T05:55:16.459Z,45.37
2018-03-26T05:57:44.230Z,38.87
2018-03-26T06:00:12.213Z,40.37
2018-03-26T06:02:39.909Z,40.13
2018-03-26T06:05:08.628Z,39.77
2018-03-26T06:07:36.424Z,41.30
2018-03-26T06:10:04.336Z,42.80
2018-03-26T06:12:32.039Z,43.90
2018-03-26T06:14:59.837Z,37.33
2018-03-26T06:17:27.543Z,39.00
2018-03-26T06:19:55.354Z,43.03
2018-03-26T06:22:23.806Z,39.27
2018-03-26T06:24:51.435Z,41.33
2018-03-26T06:27:19.159Z,38.00
2018-03-26T06:29:46.846Z,43.70
2018-03-26T06:32:14.609Z,40.43
2018-03-26T06:34:43.195Z,43.10
2018-03-26T06:40:22.651Z,41.23
2018-03-26T06:42:50.273Z,45.60
2018-03-26T06:45:18.117Z,40.87
2018-03-26T06:47:46.025Z,42.20
2018-03-26T06:50:13.704Z,39.63
2018-03-26T06:52:41.342Z,35.57
2018-03-26T06:55:08.990Z,36.60
2018-03-26T06:57:36.645Z,35.00
2018-03-26T07:00:04.445Z,31.03
2018-03-26T07:02:32.098Z,28.57
2018-03-26T07:04:59.713Z,27.40
2018-03-26T07:07:28.062Z,27.40
2018-03-26T07:09:55.722Z,26.37
2018-03-26T07:12:23.372Z,27.23
2018-03-26T07:14:51.064Z,28.13
2018-03-26T07:17:18.665Z,30.80
2018-03-26T07:19:46.247Z,29.97
2018-03-26T07:22:13.856Z,29.97
2018-03-26T07:24:41.502Z,25.43
2018-03-26T07:27:11.128Z,26.57
2018-03-26T07:29:39.545Z,26.60
2018-03-26T07:32:07.237Z,21.40
2018-03-26T07:34:35.087Z,20.30
2018-03-26T07:37:02.894Z,18.73
2018-03-26T07:39:30.758Z,18.53
2018-03-26T07:41:58.770Z,17.77
2018-03-26T07:44:31.433Z,16.70
2018-03-26T07:46:59.497Z,14.80
2018-03-26T07:49:31.406Z,15.90
2018-03-26T07:51:59.529Z,17.10
2018-03-26T07:54:28.421Z,16.93
2018-03-26T07:56:56.242Z,17.50
2018-03-26T07:59:24.578Z,16.97
2018-03-26T08:01:52.929Z,15.27
2018-03-26T08:04:20.807Z,19.40
2018-03-26T08:06:48.654Z,21.43
2018-03-26T08:09:16.618Z,20.83
2018-03-26T08:11:44.837Z,17.77
2018-03-26T08:14:13.450Z,17.20
2018-03-26T08:16:41.144Z,15.43
2018-03-26T08:19:08.806Z,16.43
2018-03-26T08:21:36.626Z,17.80
2018-03-26T08:24:04.415Z,18.77
2018-03-26T08:26:32.690Z,20.10
2018-03-26T08:29:00.360Z,17.50
2018-03-26T08:31:28.175Z,18.00
2018-03-26T08:34:02.036Z,18.07
2018-03-26T08:36:30.310Z,18.57
2018-03-26T08:38:57.916Z,18.43
2018-03-26T08:41:25.497Z,19.73
2018-03-26T08:43:53.398Z,20.43
2018-03-26T08:46:21.039Z,20.00
2018-03-26T08:48:48.752Z,21.83
2018-03-26T08:51:16.362Z,21.43
2018-03-26T08:53:44.733Z,18.03
2018-03-26T08:56:14.037Z,14.90
2018-03-26T08:58:42.376Z,16.67
2018-03-26T09:01:10.052Z,13.90
2018-03-26T09:03:37.747Z,12.93
2018-03-26T09:06:05.755Z,15.37
2018-03-26T09:08:34.384Z,16.80
2018-03-26T09:11:02.061Z,45.83
2018-03-26T09:13:29.751Z,16.80
2018-03-26T09:15:57.780Z,18.47
2018-03-26T09:18:25.703Z,19.40
2018-03-26T09:20:53.399Z,13.67
2018-03-26T09:23:22.319Z,13.57
2018-03-26T09:25:51.064Z,12.93
2018-03-26T09:28:18.814Z,12.37
2018-03-26T09:30:46.759Z,13.43
2018-03-26T09:33:15.872Z,11.80
2018-03-26T09:35:43.506Z,11.43
2018-03-26T09:38:11.934Z,10.83
2018-03-26T09:40:39.608Z,12.50
2018-03-26T09:43:07.301Z,12.43
2018-03-26T09:45:34.998Z,13.07
2018-03-26T09:48:02.653Z,11.03
2018-03-26T09:50:31.142Z,11.03
2018-03-26T09:52:58.818Z,11.03
2018-03-26T09:55:27.594Z,14.27
2018-03-26T09:57:55.281Z,12.33
2018-03-26T10:00:28.649Z,13.30
2018-03-26T10:02:56.429Z,12.47
2018-03-26T10:05:24.138Z,13.40
2018-03-26T10:07:51.821Z,13.73
2018-03-26T10:10:19.508Z,15.20
2018-03-26T10:12:47.987Z,15.23
2018-03-26T10:15:15.703Z,14.13
2018-03-26T10:17:43.446Z,16.60
2018-03-26T10:20:11.134Z,16.03
2018-03-26T10:22:38.751Z,16.10
2018-03-26T10:25:06.410Z,15.77
2018-03-26T10:27:34.111Z,16.33
2018-03-26T10:30:01.790Z,14.57
2018-03-26T10:32:29.388Z,14.27
2018-03-26T10:34:57.068Z,13.13
2018-03-26T10:37:24.738Z,14.77
2018-03-26T10:39:52.396Z,14.17
2018-03-26T10:42:20.065Z,12.63
2018-03-26T10:44:47.744Z,11.77
2018-03-26T10:47:20.747Z,10.67
2018-03-26T10:49:48.372Z,10.27
2018-03-26T10:52:16.037Z,11.70
2018-03-26T10:54:43.679Z,12.77
2018-03-26T10:57:12.088Z,12.50
2018-03-26T10:59:39.794Z,12.60
2018-03-26T11:02:07.432Z,9.87
2018-03-26T11:04:35.630Z,10.57
2018-03-26T11:07:03.301Z,11.73
2018-03-26T11:09:31.011Z,12.43
2018-03-26T11:11:58.714Z,13.63
2018-03-26T11:14:26.365Z,13.23
2018-03-26T11:16:58.183Z,12.37
2018-03-26T11:19:26.610Z,12.90
2018-03-26T11:21:54.291Z,13.07
2018-03-26T11:24:21.930Z,11.07
2018-03-26T11:26:49.582Z,12.30
2018-03-26T11:29:17.280Z,10.63
2018-03-26T11:31:44.923Z,13.13
2018-03-26T11:34:12.558Z,10.47
2018-03-26T11:36:40.191Z,9.80
2018-03-26T11:39:07.953Z,9.33
2018-03-26T11:41:35.587Z,9.90
2018-03-26T11:44:03.259Z,9.47
2018-03-26T11:46:31.105Z,9.37
2018-03-26T11:48:58.799Z,9.73
2018-03-26T11:51:26.464Z,10.27
2018-03-26T11:53:54.154Z,9.37
2018-03-26T11:56:21.822Z,9.60
2018-03-26T11:58:50.250Z,9.10
2018-03-26T12:01:17.962Z,9.23
2018-03-26T12:03:46.340Z,9.43
2018-03-26T12:06:14.762Z,11.67
2018-03-26T12:08:42.401Z,11.60
2018-03-26T12:11:10.106Z,12.13
2018-03-26T12:13:37.753Z,9.80
2018-03-26T12:16:10.397Z,8.43
2018-03-26T12:18:38.086Z,8.93
2018-03-26T12:21:05.781Z,8.30
2018-03-26T12:23:45.239Z,8.13
2018-03-26T12:26:12.873Z,9.20
2018-03-26T12:28:52.414Z,9.10
2018-03-26T12:31:25.453Z,8.00
2018-03-26T12:34:05.351Z,8.60
2018-03-26T12:36:33.018Z,8.03
2018-03-26T12:39:00.687Z,8.30
2018-03-26T12:41:28.332Z,8.87
2018-03-26T12:43:56.027Z,8.10
2018-03-26T12:46:37.326Z,9.20
2018-03-26T12:49:05.767Z,8.70
2018-03-26T12:51:45.273Z,9.93
2018-03-26T12:54:12.913Z,8.87
2018-03-26T12:56:41.304Z,8.40
2018-03-26T12:59:09.760Z,7.30
2018-03-26T13:04:40.045Z,8.97
2018-03-26T13:07:07.719Z,8.37
2018-03-26T13:09:35.370Z,7.90
2018-03-26T13:12:03.033Z,8.87
2018-03-26T13:14:30.661Z,8.27
2018-03-26T13:16:58.240Z,8.97
2018-03-26T13:19:25.875Z,8.30
2018-03-26T13:21:53.542Z,7.00
2018-03-26T13:24:21.184Z,7.50
2018-03-26T13:26:48.846Z,7.67
2018-03-26T13:29:16.532Z,7.27
2018-03-26T13:31:44.166Z,7.90
2018-03-26T13:34:11.814Z,8.17
2018-03-26T13:36:43.113Z,9.33
2018-03-26T13:39:10.742Z,8.07
2018-03-26T13:41:38.417Z,7.83
2018-03-26T13:44:06.096Z,7.47
2018-03-26T13:46:33.807Z,7.50
2018-03-26T13:49:01.492Z,8.10
2018-03-26T13:51:29.170Z,6.87
2018-03-26T13:53:56.857Z,6.80
2018-03-26T13:56:24.515Z,6.93
2018-03-26T13:58:52.187Z,7.60
2018-03-26T14:01:19.878Z,17.97
2018-03-26T14:03:47.529Z,7.97
2018-03-26T14:06:17.415Z,6.83
2018-03-26T14:08:56.763Z,7.07
2018-03-26T14:11:36.225Z,7.17
2018-03-26T14:14:15.656Z,6.83
2018-03-26T14:16:54.946Z,5.93
2018-03-26T14:19:22.640Z,7.90
2018-03-26T14:21:50.328Z,6.60
2018-03-26T14:24:17.945Z,6.57
2018-03-26T14:26:45.613Z,6.83
2018-03-26T14:29:13.266Z,6.73
2018-03-26T14:31:40.923Z,6.97
2018-03-26T14:34:08.567Z,7.43
2018-03-26T14:36:39.238Z,6.50
2018-03-26T14:39:06.921Z,6.73
2018-03-26T14:41:35.374Z,6.80
2018-03-26T14:44:03.022Z,6.17
2018-03-26T14:46:30.672Z,6.43
2018-03-26T14:48:58.319Z,6.30
2018-03-26T14:51:25.976Z,6.87
2018-03-26T14:53:53.685Z,6.83
2018-03-26T14:56:21.324Z,6.37
2018-03-26T14:58:48.961Z,6.30
2018-03-26T15:01:17.410Z,6.47
2018-03-26T15:03:45.069Z,6.90
2018-03-26T15:06:12.739Z,6.07
2018-03-26T15:08:40.385Z,6.53
2018-03-26T15:11:08.040Z,6.93
2018-03-26T15:13:35.714Z,6.33
2018-03-26T15:16:03.385Z,5.63
2018-03-26T15:18:31.025Z,6.63
2018-03-26T15:20:58.705Z,6.33
2018-03-26T15:23:26.366Z,8.13
2018-03-26T15:25:55.962Z,5.40
2018-03-26T15:28:23.595Z,6.40
2018-03-26T15:30:51.253Z,5.60
2018-03-26T15:33:19.025Z,6.37
2018-03-26T15:35:46.690Z,7.97
2018-03-26T15:38:14.378Z,7.07
2018-03-26T15:40:42.052Z,6.53
2018-03-26T15:43:09.717Z,6.00
2018-03-26T15:45:37.376Z,6.67
2018-03-26T15:48:05.098Z,5.83
2018-03-26T15:50:32.760Z,7.13
2018-03-26T15:53:00.414Z,6.70
2018-03-26T15:55:31.696Z,7.67
2018-03-26T15:57:59.420Z,7.93
2018-03-26T16:00:27.846Z,7.57
2018-03-26T16:03:01.076Z,6.07
2018-03-26T16:05:28.760Z,6.10
2018-03-26T16:07:56.465Z,6.63
2018-03-26T16:10:24.149Z,9.67
2018-03-26T16:12:51.784Z,8.03
2018-03-26T16:15:28.814Z,7.67
2018-03-26T16:17:56.449Z,6.87
2018-03-26T16:20:24.178Z,7.73
2018-03-26T16:22:51.844Z,6.33
2018-03-26T16:25:19.509Z,6.70
2018-03-26T16:27:47.157Z,7.20
2018-03-26T16:30:14.837Z,5.90
2018-03-26T16:32:42.464Z,7.43
2018-03-26T16:35:10.135Z,9.17
2018-03-26T16:37:37.802Z,7.53
2018-03-26T16:40:06.221Z,6.07
2018-03-26T16:42:48.769Z,6.73
2018-03-26T16:45:16.452Z,8.63
2018-03-26T16:47:44.934Z,8.37
2018-03-26T16:50:12.614Z,9.00
2018-03-26T16:52:40.312Z,6.97
2018-03-26T16:55:08.758Z,9.30
2018-03-26T16:57:36.403Z,7.73
2018-03-26T17:00:04.070Z,7.00
2018-03-26T17:02:31.763Z,8.23
2018-03-26T17:04:59.436Z,8.00
2018-03-26T17:07:27.147Z,7.57
2018-03-26T17:09:54.811Z,8.43
2018-03-26T17:12:22.475Z,8.07
2018-03-26T17:14:50.152Z,8.30
2018-03-26T17:17:18.987Z,7.03
2018-03-26T17:19:46.609Z,7.37
2018-03-26T17:22:14.285Z,7.80
2018-03-26T17:24:41.996Z,17.57
2018-03-26T17:27:09.654Z,9.50
2018-03-26T17:29:37.340Z,9.97
2018-03-26T17:32:05.056Z,8.70
2018-03-26T17:34:32.772Z,8.00
2018-03-26T17:37:00.495Z,9.27
2018-03-26T17:39:28.138Z,10.50
2018-03-26T17:41:55.785Z,9.00
2018-03-26T17:44:23.421Z,9.10
2018-03-26T17:46:52.038Z,9.87
2018-03-26T17:49:19.688Z,8.27
2018-03-26T17:51:47.366Z,9.13
2018-03-26T17:54:14.998Z,9.30
2018-03-26T17:56:42.663Z,12.43
2018-03-26T17:59:10.307Z,11.00
2018-03-26T18:01:37.998Z,11.90
2018-03-26T18:04:05.688Z,9.23
2018-03-26T18:06:33.347Z,10.53
2018-03-26T18:09:01.039Z,10.67
2018-03-26T18:11:28.728Z,10.73
2018-03-26T18:13:56.364Z,13.27
2018-03-26T18:16:24.978Z,11.00
2018-03-26T18:18:52.635Z,11.73
2018-03-26T18:21:20.426Z,14.47
2018-03-26T18:23:48.083Z,13.93
2018-03-26T18:26:15.783Z,12.13
2018-03-26T18:28:43.462Z,10.17
2018-03-26T18:31:11.121Z,15.73
2018-03-26T18:33:38.800Z,15.97
2018-03-26T18:36:06.506Z,25.57
2018-03-26T18:38:34.963Z,28.53
2018-03-26T18:41:02.625Z,24.23
2018-03-26T18:43:30.291Z,17.53
2018-03-26T18:45:58.908Z,10.33
2018-03-26T18:48:27.181Z,12.20
2018-03-26T18:50:55.574Z,12.63
2018-03-26T18:53:23.244Z,10.00
2018-03-26T18:55:50.925Z,10.10
2018-03-26T18:58:18.982Z,11.17
2018-03-26T19:00:46.642Z,11.40
2018-03-26T19:03:14.325Z,12.63
2018-03-26T19:05:42.006Z,10.17
2018-03-26T19:08:09.645Z,11.27
2018-03-26T19:10:37.310Z,11.40
2018-03-26T19:13:04.983Z,10.53
2018-03-26T19:15:33.583Z,11.33
2018-03-26T19:18:01.277Z,12.30
2018-03-26T19:20:29.764Z,11.20
2018-03-26T19:22:57.423Z,11.03
2018-03-26T19:25:25.063Z,13.70
2018-03-26T19:27:52.684Z,12.70
2018-03-26T19:30:20.328Z,12.43
2018-03-26T19:32:49.183Z,10.97
2018-03-26T19:35:16.832Z,13.03
2018-03-26T19:37:44.515Z,10.20
2018-03-26T19:40:12.197Z,11.70
2018-03-26T19:42:39.912Z,10.17
2018-03-26T19:45:07.551Z,12.57
2018-03-26T19:47:35.128Z,9.97
2018-03-26T19:50:02.781Z,12.27
2018-03-26T19:52:30.414Z,11.17
2018-03-26T19:54:58.112Z,11.40
2018-03-26T19:57:25.785Z,10.87
2018-03-26T19:59:53.413Z,12.93
2018-03-26T20:02:21.169Z,12.37
2018-03-26T20:04:48.828Z,11.10
2018-03-26T20:07:18.568Z,13.10
2018-03-26T20:09:46.275Z,12.83
2018-03-26T20:12:13.923Z,10.57
2018-03-26T20:14:41.631Z,14.03
2018-03-26T20:17:09.272Z,13.03
2018-03-26T20:19:36.935Z,16.53
2018-03-26T20:22:04.622Z,16.60
2018-03-26T20:24:32.308Z,14.43
2018-03-26T20:26:59.946Z,15.83
2018-03-26T20:29:28.382Z,17.97
2018-03-26T20:31:56.421Z,16.67
2018-03-26T20:34:24.101Z,15.07
2018-03-26T20:36:53.807Z,17.67
2018-03-26T20:39:21.825Z,16.67
2018-03-26T20:41:49.479Z,17.03
2018-03-26T20:44:17.187Z,19.77
2018-03-26T20:46:44.874Z,17.63
2018-03-26T20:49:12.542Z,20.17
2018-03-26T20:51:40.188Z,18.30
2018-03-26T20:54:08.371Z,17.57
2018-03-26T20:56:36.059Z,17.53
2018-03-26T20:59:03.770Z,18.67
2018-03-26T21:01:31.467Z,20.73
2018-03-26T21:03:59.154Z,19.87
2018-03-26T21:06:27.972Z,16.23
2018-03-26T21:08:55.634Z,18.03
2018-03-26T21:11:23.331Z,18.57
2018-03-26T21:13:51.033Z,13.33
2018-03-26T21:16:18.713Z,15.43
2018-03-26T21:18:46.380Z,15.80
2018-03-26T21:21:14.041Z,16.00
2018-03-26T21:23:41.730Z,17.70
2018-03-26T21:26:09.386Z,16.50
2018-03-26T21:28:37.826Z,18.30
2018-03-26T21:31:05.533Z,16.13
2018-03-26T21:33:33.994Z,15.97
2018-03-26T21:36:03.946Z,17.70
2018-03-26T21:38:31.624Z,19.43
2018-03-26T21:40:59.294Z,19.93
2018-03-26T21:43:26.945Z,16.40
2018-03-26T21:45:54.645Z,18.77
2018-03-26T21:48:22.321Z,20.83
2018-03-26T21:50:50.042Z,16.70
2018-03-26T21:53:17.719Z,20.23
2018-03-26T21:55:45.737Z,17.60
2018-03-26T21:58:13.357Z,20.03
2018-03-26T22:00:41.039Z,18.80
2018-03-26T22:03:08.650Z,20.20
2018-03-26T22:05:37.937Z,18.43
2018-03-26T22:08:06.322Z,17.93
2018-03-26T22:10:34.753Z,18.63
2018-03-26T22:13:02.442Z,19.30
2018-03-26T22:15:30.120Z,20.00
2018-03-26T22:17:57.788Z,17.33
2018-03-26T22:20:25.490Z,17.53
2018-03-26T22:22:53.147Z,18.93
2018-03-26T22:25:20.812Z,17.67
2018-03-26T22:27:48.532Z,19.03
2018-03-26T22:30:16.191Z,18.43
2018-03-26T22:32:43.811Z,20.50
2018-03-26T22:35:12.656Z,21.00
2018-03-26T22:37:40.304Z,20.70
2018-03-26T22:40:07.960Z,18.87
2018-03-26T22:42:35.663Z,20.07
2018-03-26T22:45:04.068Z,23.00
2018-03-26T22:47:31.684Z,20.93
2018-03-26T22:49:59.318Z,22.60
2018-03-26T22:52:26.948Z,20.57
2018-03-26T22:54:54.656Z,20.87
2018-03-26T22:57:23.360Z,20.80
2018-03-26T22:59:51.019Z,22.87
2018-03-26T23:02:18.657Z,19.83
2018-03-26T23:04:46.354Z,23.90
2018-03-26T23:07:14.061Z,25.23
2018-03-26T23:09:41.710Z,20.80
2018-03-26T23:12:09.347Z,21.53
2018-03-26T23:14:37.034Z,24.97
2018-03-26T23:17:04.695Z,20.43
2018-03-26T23:19:32.333Z,19.73
2018-03-26T23:22:00.743Z,23.20
2018-03-26T23:24:28.437Z,22.90
2018-03-26T23:26:59.081Z,21.77
2018-03-26T23:29:26.762Z,24.73
2018-03-26T23:31:55.214Z,19.80
2018-03-26T23:34:22.914Z,24.43
2018-03-26T23:36:50.554Z,21.10
2018-03-26T23:39:18.231Z,22.67
2018-03-26T23:41:45.891Z,20.63
2018-03-26T23:44:13.599Z,25.40
2018-03-26T23:46:41.304Z,24.50
2018-03-26T23:49:08.961Z,23.17
2018-03-26T23:51:36.642Z,21.07
2018-03-26T23:54:04.370Z,21.70
2018-03-26T23:56:32.938Z,24.13
2018-03-26T23:59:00.653Z,22.63
